createdAt,value
2022-08-01T00:00:09.925Z,21.40
2022-08-01T00:02:41.339Z,21.40
2022-08-01T00:05:09.633Z,21.40
2022-08-01T00:07:37.437Z,21.40
2022-08-01T00:10:06.542Z,21.50
2022-08-01T00:12:33.448Z,21.50
2022-08-01T00:15:00.470Z,21.50
2022-08-01T00:17:27.444Z,21.50
2022-08-01T00:19:54.244Z,21.50
2022-08-01T00:22:21.170Z,21.40
2022-08-01T00:24:47.970Z,21.40
2022-08-01T00:27:14.911Z,21.30
2022-08-01T00:30:01.156Z,21.10
2022-08-01T00:32:30.817Z,21.10
2022-08-01T00:34:57.658Z,21.00
2022-08-01T00:37:24.925Z,21.00
2022-08-01T00:39:51.837Z,21.10
2022-08-01T00:42:18.682Z,21.20
2022-08-01T00:44:46.019Z,21.20
2022-08-01T00:47:13.419Z,21.20
2022-08-01T00:49:40.487Z,21.20
2022-08-01T00:52:09.430Z,21.20
2022-08-01T00:54:36.773Z,21.10
2022-08-01T00:57:04.541Z,21.00
2022-08-01T00:59:31.925Z,20.90
2022-08-01T01:01:58.914Z,21.00
2022-08-01T01:04:25.957Z,21.00
2022-08-01T01:07:10.442Z,20.90
2022-08-01T01:09:58.891Z,20.80
2022-08-01T01:12:50.001Z,20.90
2022-08-01T01:15:20.191Z,20.80
2022-08-01T01:17:57.176Z,20.70
2022-08-01T01:20:47.838Z,20.70
2022-08-01T01:23:36.157Z,20.60
2022-08-01T01:26:29.091Z,20.50
2022-08-01T01:29:18.151Z,20.60
2022-08-01T01:31:47.791Z,20.60
2022-08-01T01:34:18.125Z,20.70
2022-08-01T01:36:46.887Z,20.70
2022-08-01T01:39:16.260Z,20.70
2022-08-01T01:41:45.276Z,20.70
2022-08-01T01:44:12.887Z,20.70
2022-08-01T01:46:41.388Z,20.80
2022-08-01T01:49:13.162Z,20.80
2022-08-01T01:51:53.295Z,20.80
2022-08-01T01:54:34.024Z,20.80
2022-08-01T01:57:03.559Z,20.70
2022-08-01T01:59:33.933Z,20.70
2022-08-01T02:02:06.490Z,20.60
2022-08-01T02:04:36.217Z,20.50
2022-08-01T02:07:03.999Z,20.40
2022-08-01T02:09:32.887Z,20.40
2022-08-01T02:12:08.875Z,20.40
2022-08-01T02:14:36.827Z,20.40
2022-08-01T02:17:05.253Z,20.40
2022-08-01T02:19:36.993Z,20.50
2022-08-01T02:22:29.951Z,20.50
2022-08-01T02:25:03.218Z,20.60
2022-08-01T02:27:35.743Z,20.50
2022-08-01T02:30:08.666Z,20.60
2022-08-01T02:32:41.013Z,20.50
2022-08-01T02:35:14.228Z,20.70
2022-08-01T02:37:45.180Z,20.60
2022-08-01T02:40:15.267Z,20.60
2022-08-01T02:42:46.385Z,20.60
2022-08-01T02:45:14.609Z,20.60
2022-08-01T02:47:43.290Z,20.70
2022-08-01T02:50:13.350Z,20.50
2022-08-01T02:52:42.851Z,20.60
2022-08-01T02:55:11.404Z,20.70
2022-08-01T02:57:51.374Z,20.60
2022-08-01T03:00:19.270Z,20.60
2022-08-01T03:02:51.506Z,20.60
2022-08-01T03:05:19.335Z,20.60
2022-08-01T03:07:48.407Z,20.50
2022-08-01T03:10:17.180Z,20.50
2022-08-01T03:12:48.298Z,20.50
2022-08-01T03:15:16.308Z,20.60
2022-08-01T03:17:45.201Z,20.60
2022-08-01T03:20:14.942Z,20.50
2022-08-01T03:22:43.740Z,20.60
2022-08-01T03:25:12.718Z,20.60
2022-08-01T03:27:42.974Z,20.70
2022-08-01T03:30:11.551Z,20.60
2022-08-01T03:32:38.973Z,20.60
2022-08-01T03:35:06.600Z,20.60
2022-08-01T03:38:00.285Z,20.60
2022-08-01T03:40:40.967Z,20.60
2022-08-01T03:43:13.214Z,20.60
2022-08-01T03:45:42.290Z,20.70
2022-08-01T03:48:17.566Z,20.70
2022-08-01T03:50:48.957Z,20.70
2022-08-01T03:53:17.002Z,20.70
2022-08-01T03:55:45.322Z,20.60
2022-08-01T03:58:14.023Z,20.70
2022-08-01T04:00:41.856Z,20.70
2022-08-01T04:03:13.124Z,20.60
2022-08-01T04:05:43.474Z,20.60
2022-08-01T04:08:10.426Z,20.50
2022-08-01T04:10:38.581Z,20.50
2022-08-01T04:13:05.499Z,20.50
2022-08-01T04:15:32.565Z,20.50
2022-08-01T04:17:59.784Z,20.50
2022-08-01T04:20:26.676Z,20.50
2022-08-01T04:22:53.639Z,20.60
2022-08-01T04:25:28.583Z,20.60
2022-08-01T04:27:56.730Z,20.60
2022-08-01T04:30:27.150Z,20.50
2022-08-01T04:32:55.610Z,20.50
2022-08-01T04:36:03.506Z,20.60
2022-08-01T04:38:14.179Z,20.80
2022-08-01T04:40:46.459Z,21.00
2022-08-01T04:43:14.942Z,21.20
2022-08-01T04:45:44.803Z,21.40
2022-08-01T04:48:14.424Z,21.50
2022-08-01T04:50:42.969Z,21.60
2022-08-01T04:53:17.971Z,21.70
2022-08-01T04:55:47.146Z,21.80
2022-08-01T04:58:18.266Z,21.80
2022-08-01T05:00:46.016Z,22.00
2022-08-01T05:03:12.982Z,22.10
2022-08-01T05:05:39.911Z,22.20
2022-08-01T05:08:07.366Z,22.20
2022-08-01T05:10:35.149Z,22.30
2022-08-01T05:13:02.174Z,22.40
2022-08-01T05:15:29.133Z,22.40
2022-08-01T05:17:57.241Z,22.50
2022-08-01T05:20:24.211Z,22.40
2022-08-01T05:22:51.069Z,22.50
2022-08-01T05:25:20.151Z,22.50
2022-08-01T05:27:49.220Z,22.70
2022-08-01T05:30:18.521Z,22.10
2022-08-01T05:32:45.370Z,21.20
2022-08-01T05:35:12.314Z,20.40
2022-08-01T05:37:39.228Z,19.90
2022-08-01T05:40:06.915Z,19.80
2022-08-01T05:42:33.749Z,19.30
2022-08-01T05:45:00.617Z,19.10
2022-08-01T05:47:27.694Z,19.10
2022-08-01T05:49:54.584Z,19.10
2022-08-01T05:52:21.416Z,19.10
2022-08-01T05:54:48.367Z,19.10
2022-08-01T05:57:15.356Z,19.10
2022-08-01T05:59:42.334Z,18.90
2022-08-01T06:02:10.001Z,18.90
2022-08-01T06:04:37.107Z,18.80
2022-08-01T06:07:03.980Z,18.60
2022-08-01T06:09:33.653Z,18.60
2022-08-01T06:12:00.482Z,18.70
2022-08-01T06:14:27.338Z,18.80
2022-08-01T06:16:54.283Z,18.80
2022-08-01T06:19:21.205Z,18.80
2022-08-01T06:21:48.174Z,18.80
2022-08-01T06:24:15.144Z,18.80
2022-08-01T06:26:41.975Z,18.60
2022-08-01T06:29:09.935Z,18.70
2022-08-01T06:31:36.998Z,18.80
2022-08-01T06:34:04.053Z,18.70
2022-08-01T06:36:30.939Z,18.80
2022-08-01T06:38:57.901Z,18.70
2022-08-01T06:41:24.852Z,18.80
2022-08-01T06:43:51.675Z,18.80
2022-08-01T06:46:18.706Z,18.80
2022-08-01T06:48:45.542Z,18.90
2022-08-01T06:51:19.005Z,18.70
2022-08-01T06:53:45.894Z,18.90
2022-08-01T06:56:12.964Z,18.90
2022-08-01T06:58:39.867Z,18.90
2022-08-01T07:01:08.443Z,18.90
2022-08-01T07:03:52.718Z,19.00
2022-08-01T07:06:21.803Z,19.00
2022-08-01T07:08:48.665Z,19.10
2022-08-01T07:11:15.470Z,19.20
2022-08-01T07:13:45.606Z,19.10
2022-08-01T07:16:13.876Z,19.20
2022-08-01T07:18:40.974Z,19.20
2022-08-01T07:21:16.631Z,19.10
2022-08-01T07:23:55.881Z,19.20
2022-08-01T07:26:23.539Z,19.20
2022-08-01T07:28:50.805Z,19.30
2022-08-01T07:31:17.758Z,19.20
2022-08-01T07:33:49.108Z,19.20
2022-08-01T07:36:19.885Z,19.10
2022-08-01T07:38:47.283Z,19.30
2022-08-01T07:41:14.659Z,19.30
2022-08-01T07:43:47.254Z,19.10
2022-08-01T07:46:20.284Z,19.20
2022-08-01T07:48:47.346Z,19.20
2022-08-01T07:51:14.436Z,19.60
2022-08-01T07:53:41.390Z,20.00
2022-08-01T07:56:08.310Z,20.50
2022-08-01T07:58:35.285Z,20.80
2022-08-01T08:01:02.343Z,21.20
2022-08-01T08:03:29.257Z,21.40
2022-08-01T08:05:58.557Z,21.60
2022-08-01T08:08:26.433Z,21.80
2022-08-01T08:10:53.412Z,21.90
2022-08-01T08:13:20.985Z,22.00
2022-08-01T08:15:48.845Z,22.20
2022-08-01T08:18:16.576Z,22.20
2022-08-01T08:20:43.808Z,22.30
2022-08-01T08:23:42.122Z,22.40
2022-08-01T08:26:12.112Z,22.40
2022-08-01T08:28:40.844Z,22.50
2022-08-01T08:31:25.658Z,22.70
2022-08-01T08:33:56.162Z,22.80
2022-08-01T08:36:31.273Z,22.80
2022-08-01T08:39:01.686Z,22.90
2022-08-01T08:41:37.676Z,22.80
2022-08-01T08:44:10.637Z,23.00
2022-08-01T08:47:09.249Z,22.90
2022-08-01T08:49:37.028Z,23.10
2022-08-01T08:52:05.816Z,23.00
2022-08-01T08:54:39.103Z,23.00
2022-08-01T08:57:08.162Z,23.20
2022-08-01T08:59:35.418Z,23.10
2022-08-01T09:02:02.434Z,23.20
2022-08-01T09:04:29.718Z,23.20
2022-08-01T09:06:56.555Z,23.20
2022-08-01T09:09:24.428Z,23.40
2022-08-01T09:11:57.496Z,23.40
2022-08-01T09:14:26.477Z,23.40
2022-08-01T09:17:11.393Z,23.40
2022-08-01T09:19:43.783Z,23.40
2022-08-01T09:22:19.213Z,23.40
2022-08-01T09:25:06.887Z,23.40
2022-08-01T09:27:34.472Z,23.30
2022-08-01T09:30:17.398Z,23.30
2022-08-01T09:33:06.567Z,23.30
2022-08-01T09:35:46.460Z,23.20
2022-08-01T09:38:20.148Z,23.30
2022-08-01T09:40:51.137Z,23.30
2022-08-01T09:43:19.611Z,23.30
2022-08-01T09:45:50.931Z,23.30
2022-08-01T09:48:28.498Z,23.30
2022-08-01T09:51:04.640Z,23.30
2022-08-01T09:53:52.049Z,23.20
2022-08-01T09:56:22.650Z,23.20
2022-08-01T09:58:59.565Z,23.20
2022-08-01T10:01:36.746Z,23.20
2022-08-01T10:04:12.483Z,23.20
2022-08-01T10:06:41.711Z,23.30
2022-08-01T10:09:09.206Z,23.30
2022-08-01T10:11:40.231Z,23.30
2022-08-01T10:14:08.767Z,23.20
2022-08-01T10:16:39.315Z,23.20
2022-08-01T10:19:14.551Z,23.20
2022-08-01T10:21:57.744Z,23.10
2022-08-01T10:24:29.217Z,23.20
2022-08-01T10:27:05.970Z,23.30
2022-08-01T10:30:05.176Z,23.20
2022-08-01T10:32:36.094Z,23.20
2022-08-01T10:35:06.541Z,23.20
2022-08-01T10:37:52.408Z,23.20
2022-08-01T10:40:37.041Z,23.20
2022-08-01T10:43:04.534Z,23.20
2022-08-01T10:45:32.453Z,23.20
2022-08-01T10:48:16.182Z,23.30
2022-08-01T10:50:52.343Z,23.20
2022-08-01T10:53:31.049Z,23.20
2022-08-01T10:56:03.212Z,23.20
2022-08-01T10:58:38.029Z,23.20
2022-08-01T11:01:32.402Z,23.20
2022-08-01T11:04:03.905Z,23.20
2022-08-01T11:06:34.119Z,23.20
2022-08-01T11:09:06.644Z,23.20
2022-08-01T11:11:53.948Z,23.30
2022-08-01T11:14:26.312Z,23.40
2022-08-01T11:16:57.673Z,23.40
2022-08-01T11:19:24.600Z,23.40
2022-08-01T11:21:56.837Z,23.50
2022-08-01T11:24:49.735Z,23.60
2022-08-01T11:27:24.914Z,23.60
2022-08-01T11:30:13.360Z,23.60
2022-08-01T11:33:10.326Z,23.70
2022-08-01T11:35:37.494Z,23.80
2022-08-01T11:38:23.681Z,23.80
2022-08-01T11:41:10.461Z,23.80
2022-08-01T11:43:55.175Z,23.80
2022-08-01T11:47:00.152Z,23.80
2022-08-01T11:49:41.198Z,23.70
2022-08-01T11:52:16.944Z,23.70
2022-08-01T11:54:54.988Z,23.70
2022-08-01T11:57:34.709Z,23.60
2022-08-01T12:00:17.548Z,23.60
2022-08-01T12:02:46.867Z,23.60
2022-08-01T12:05:17.744Z,23.60
2022-08-01T12:07:46.903Z,23.60
2022-08-01T12:10:16.640Z,23.60
2022-08-01T12:12:49.589Z,23.60
2022-08-01T12:15:17.080Z,23.60
2022-08-01T12:17:58.153Z,23.60
2022-08-01T12:20:31.214Z,23.70
2022-08-01T12:23:04.148Z,23.70
2022-08-01T12:25:31.092Z,23.70
2022-08-01T12:28:05.165Z,23.60
2022-08-01T12:30:36.367Z,23.80
2022-08-01T12:33:09.111Z,23.80
2022-08-01T12:35:37.867Z,23.80
2022-08-01T12:38:08.092Z,23.70
2022-08-01T12:40:36.102Z,23.80
2022-08-01T12:43:09.053Z,23.80
2022-08-01T12:45:54.386Z,23.80
2022-08-01T12:48:24.295Z,23.80
2022-08-01T12:50:53.281Z,23.90
2022-08-01T12:53:21.674Z,23.80
2022-08-01T12:55:59.347Z,23.80
2022-08-01T12:58:35.790Z,23.80
2022-08-01T13:01:13.120Z,23.90
2022-08-01T13:03:40.656Z,23.80
2022-08-01T13:06:16.881Z,23.80
2022-08-01T13:08:45.511Z,23.80
2022-08-01T13:11:18.221Z,23.80
2022-08-01T13:13:50.651Z,23.80
2022-08-01T13:16:27.885Z,23.80
2022-08-01T13:19:06.612Z,23.80
2022-08-01T13:21:53.368Z,23.80
2022-08-01T13:24:30.887Z,23.90
2022-08-01T13:27:01.391Z,23.90
2022-08-01T13:29:35.606Z,24.10
2022-08-01T13:32:27.718Z,24.10
2022-08-01T13:35:23.544Z,24.10
2022-08-01T13:37:50.952Z,24.00
2022-08-01T13:40:26.826Z,24.00
2022-08-01T13:42:55.987Z,24.00
2022-08-01T13:45:23.228Z,24.00
2022-08-01T13:48:12.376Z,23.90
2022-08-01T13:50:40.340Z,24.00
2022-08-01T13:53:07.335Z,23.90
2022-08-01T13:55:35.461Z,23.80
2022-08-01T13:58:03.884Z,23.80
2022-08-01T14:00:31.064Z,23.70
2022-08-01T14:02:57.955Z,23.80
2022-08-01T14:05:24.986Z,23.70
2022-08-01T14:07:56.191Z,23.80
2022-08-01T14:10:23.395Z,23.70
2022-08-01T14:12:50.870Z,23.90
2022-08-01T14:15:39.037Z,23.90
2022-08-01T14:18:06.219Z,23.90
2022-08-01T14:20:34.437Z,23.80
2022-08-01T14:23:01.486Z,23.80
2022-08-01T14:26:00.431Z,23.70
2022-08-01T14:28:15.468Z,23.80
2022-08-01T14:30:43.671Z,23.70
2022-08-01T14:33:11.373Z,23.70
2022-08-01T14:36:01.830Z,23.80
2022-08-01T14:38:31.686Z,23.70
2022-08-01T14:41:00.813Z,23.70
2022-08-01T14:43:32.893Z,23.80
2022-08-01T14:46:05.105Z,23.70
2022-08-01T14:48:32.512Z,23.70
2022-08-01T14:51:03.631Z,23.70
2022-08-01T14:53:31.741Z,23.70
2022-08-01T14:56:01.677Z,23.60
2022-08-01T14:58:28.612Z,23.70
2022-08-01T15:00:58.951Z,23.60
2022-08-01T15:03:26.695Z,23.70
2022-08-01T15:05:53.638Z,23.80
2022-08-01T15:08:20.617Z,23.70
2022-08-01T15:10:47.602Z,23.60
2022-08-01T15:13:14.478Z,23.70
2022-08-01T15:15:41.431Z,23.70
2022-08-01T15:18:08.294Z,23.70
2022-08-01T15:20:35.229Z,23.70
2022-08-01T15:23:02.206Z,23.70
2022-08-01T15:25:41.139Z,23.80
2022-08-01T15:28:12.308Z,23.80
2022-08-01T15:30:40.089Z,23.70
2022-08-01T15:33:07.394Z,23.70
2022-08-01T15:35:34.626Z,23.70
2022-08-01T15:38:04.448Z,23.70
2022-08-01T15:40:35.508Z,23.60
2022-08-01T15:43:03.125Z,23.60
2022-08-01T15:45:46.937Z,23.70
2022-08-01T15:48:14.726Z,23.70
2022-08-01T15:50:41.840Z,23.60
2022-08-01T15:53:08.811Z,23.60
2022-08-01T15:55:39.756Z,23.60
2022-08-01T15:58:07.429Z,23.70
2022-08-01T16:00:36.111Z,23.60
2022-08-01T16:03:06.034Z,23.60
2022-08-01T16:05:32.910Z,23.60
2022-08-01T16:08:01.924Z,23.60
2022-08-01T16:10:30.606Z,23.60
2022-08-01T16:12:57.846Z,23.60
2022-08-01T16:15:36.171Z,23.60
2022-08-01T16:18:08.039Z,23.60
2022-08-01T16:20:37.412Z,23.50
2022-08-01T16:23:06.424Z,23.50
2022-08-01T16:25:33.365Z,23.60
2022-08-01T16:28:00.448Z,23.50
2022-08-01T16:30:27.647Z,23.50
2022-08-01T16:32:59.663Z,23.50
2022-08-01T16:35:35.956Z,23.50
2022-08-01T16:38:04.398Z,23.40
2022-08-01T16:40:31.685Z,23.40
2022-08-01T16:43:14.528Z,23.50
2022-08-01T16:45:43.144Z,23.50
2022-08-01T16:48:12.252Z,23.50
2022-08-01T16:50:39.546Z,23.40
2022-08-01T16:53:06.443Z,23.40
2022-08-01T16:55:49.221Z,23.50
2022-08-01T16:58:18.896Z,23.50
2022-08-01T17:00:56.782Z,23.50
2022-08-01T17:03:51.927Z,23.50
2022-08-01T17:06:12.862Z,23.40
2022-08-01T17:08:46.158Z,23.40
2022-08-01T17:11:14.331Z,23.40
2022-08-01T17:13:41.685Z,23.50
2022-08-01T17:16:09.220Z,23.40
2022-08-01T17:18:36.169Z,23.40
2022-08-01T17:21:03.192Z,23.30
2022-08-01T17:23:31.813Z,23.40
2022-08-01T17:25:59.892Z,23.30
2022-08-01T17:28:27.108Z,23.40
2022-08-01T17:30:54.087Z,23.30
2022-08-01T17:33:21.268Z,23.40
2022-08-01T17:35:48.315Z,23.40
2022-08-01T17:38:15.228Z,23.40
2022-08-01T17:40:44.117Z,23.40
2022-08-01T17:43:11.235Z,23.40
2022-08-01T17:45:50.845Z,23.40
2022-08-01T17:48:21.422Z,23.40
2022-08-01T17:50:49.172Z,23.30
2022-08-01T17:53:21.197Z,23.40
2022-08-01T17:55:55.892Z,23.40
2022-08-01T17:58:48.972Z,23.40
2022-08-01T18:01:16.944Z,23.30
2022-08-01T18:03:44.506Z,23.30
2022-08-01T18:06:23.121Z,23.30
2022-08-01T18:08:55.296Z,23.30
2022-08-01T18:11:24.811Z,23.30
2022-08-01T18:13:55.379Z,23.30
2022-08-01T18:16:22.576Z,23.30
2022-08-01T18:18:49.737Z,23.40
2022-08-01T18:21:16.766Z,23.20
2022-08-01T18:23:51.094Z,23.30
2022-08-01T18:26:20.117Z,23.30
2022-08-01T18:28:47.123Z,23.30
2022-08-01T18:31:17.044Z,23.30
2022-08-01T18:33:44.647Z,23.30
2022-08-01T18:36:17.784Z,23.20
2022-08-01T18:38:59.897Z,23.20
2022-08-01T18:41:27.123Z,23.20
2022-08-01T18:44:04.030Z,23.20
2022-08-01T18:46:34.801Z,23.20
2022-08-01T18:49:01.851Z,23.20
2022-08-01T18:51:29.407Z,23.10
2022-08-01T18:53:57.867Z,23.20
2022-08-01T18:56:25.088Z,23.20
2022-08-01T18:58:53.970Z,23.20
2022-08-01T19:01:21.620Z,23.20
2022-08-01T19:03:48.571Z,23.10
2022-08-01T19:06:15.517Z,23.20
2022-08-01T19:08:43.376Z,23.20
2022-08-01T19:11:10.367Z,23.10
2022-08-01T19:13:38.450Z,23.10
2022-08-01T19:16:05.572Z,23.20
2022-08-01T19:18:33.772Z,23.10
2022-08-01T19:21:07.080Z,23.20
2022-08-01T19:23:53.990Z,23.10
2022-08-01T19:26:25.941Z,23.10
2022-08-01T19:28:57.786Z,23.10
2022-08-01T19:31:29.166Z,23.10
2022-08-01T19:33:57.724Z,23.10
2022-08-01T19:36:24.919Z,23.10
2022-08-01T19:38:51.939Z,23.10
2022-08-01T19:41:19.378Z,23.00
2022-08-01T19:43:48.038Z,23.10
2022-08-01T19:46:17.664Z,23.00
2022-08-01T19:48:49.860Z,23.10
2022-08-01T19:51:21.092Z,23.20
2022-08-01T19:53:55.228Z,23.10
2022-08-01T19:56:23.056Z,23.00
2022-08-01T19:59:00.083Z,23.10
2022-08-01T20:01:27.914Z,23.10
2022-08-01T20:03:56.141Z,23.10
2022-08-01T20:06:24.614Z,23.10
2022-08-01T20:08:54.733Z,23.10
2022-08-01T20:11:23.517Z,23.10
2022-08-01T20:13:51.918Z,23.10
2022-08-01T20:16:19.182Z,23.10
2022-08-01T20:18:46.095Z,23.10
2022-08-01T20:21:14.756Z,23.10
2022-08-01T20:23:44.671Z,23.20
2022-08-01T20:26:14.016Z,23.20
2022-08-01T20:28:44.208Z,23.10
2022-08-01T20:31:11.351Z,23.10
2022-08-01T20:33:43.575Z,23.10
2022-08-01T20:36:11.978Z,23.10
2022-08-01T20:38:55.169Z,23.00
2022-08-01T20:41:25.185Z,23.10
2022-08-01T20:43:54.809Z,23.10
2022-08-01T20:46:28.871Z,23.10
2022-08-01T20:48:57.825Z,23.10
2022-08-01T20:51:29.013Z,23.10
2022-08-01T20:53:56.561Z,23.00
2022-08-01T20:56:29.966Z,23.00
2022-08-01T20:58:59.751Z,23.10
2022-08-01T21:01:35.352Z,23.10
2022-08-01T21:04:18.321Z,23.10
2022-08-01T21:06:58.238Z,23.20
2022-08-01T21:09:26.800Z,23.10
2022-08-01T21:12:07.244Z,23.10
2022-08-01T21:14:41.731Z,23.10
2022-08-01T21:17:17.833Z,23.10
2022-08-01T21:19:46.916Z,23.10
2022-08-01T21:22:27.243Z,23.00
2022-08-01T21:24:59.515Z,23.00
2022-08-01T21:27:33.194Z,23.10
2022-08-01T21:30:06.703Z,23.00
2022-08-01T21:32:35.053Z,23.00
2022-08-01T21:35:04.447Z,23.00
2022-08-01T21:37:31.565Z,23.00
2022-08-01T21:40:02.700Z,23.10
2022-08-01T21:42:38.861Z,23.00
2022-08-01T21:45:08.064Z,23.00
2022-08-01T21:47:36.430Z,23.00
2022-08-01T21:50:04.575Z,23.10
2022-08-01T21:52:44.645Z,23.00
2022-08-01T21:55:37.048Z,23.00
2022-08-01T21:58:30.146Z,23.00
2022-08-01T22:01:13.460Z,23.00
2022-08-01T22:03:46.641Z,23.00
2022-08-01T22:06:19.073Z,23.00
2022-08-01T22:08:54.551Z,23.00
2022-08-01T22:11:27.858Z,22.90
2022-08-01T22:13:58.301Z,22.90
2022-08-01T22:16:26.919Z,23.00
2022-08-01T22:18:54.566Z,23.00
2022-08-01T22:21:21.722Z,22.90
2022-08-01T22:23:51.743Z,22.90
2022-08-01T22:26:22.092Z,23.00
2022-08-01T22:28:52.708Z,23.00
2022-08-01T22:31:21.959Z,23.00
2022-08-01T22:33:48.852Z,23.00
2022-08-01T22:36:16.847Z,22.90
2022-08-01T22:38:43.783Z,23.00
2022-08-01T22:41:15.938Z,22.90
2022-08-01T22:43:50.463Z,23.00
2022-08-01T22:46:40.566Z,23.00
2022-08-01T22:49:09.000Z,22.90
2022-08-01T22:51:54.968Z,22.90
2022-08-01T22:54:35.681Z,22.90
2022-08-01T22:57:07.131Z,23.00
2022-08-01T22:59:45.007Z,22.90
2022-08-01T23:02:16.305Z,22.90
2022-08-01T23:04:49.881Z,23.00
2022-08-01T23:07:24.087Z,23.00
2022-08-01T23:09:55.482Z,22.90
2022-08-01T23:12:27.065Z,22.90
2022-08-01T23:14:56.760Z,23.00
2022-08-01T23:17:31.737Z,22.90
2022-08-01T23:20:06.306Z,23.00
2022-08-01T23:22:36.451Z,23.00
2022-08-01T23:25:09.206Z,23.00
2022-08-01T23:27:52.002Z,23.00
2022-08-01T23:30:28.657Z,23.00
2022-08-01T23:32:56.011Z,23.00
2022-08-01T23:35:23.711Z,22.90
2022-08-01T23:37:51.370Z,23.00
2022-08-01T23:40:19.009Z,22.90
2022-08-01T23:42:46.119Z,23.00
2022-08-01T23:45:13.188Z,23.10
2022-08-01T23:47:40.402Z,23.00
2022-08-01T23:50:07.921Z,23.00
2022-08-01T23:52:36.830Z,22.90
2022-08-01T23:55:15.980Z,22.90
2022-08-01T23:57:43.586Z,23.00
